Foxfire Village, North Carolina
Current Conditions -  °F | °C
As of 11:15 PM on Thursday 27 Nov 2014 (Local Time) from KSOP Reporting Station
Clear Clear  
Wind Chill: 28°   Ceiling: Unl
Heat Index: 28°   Visibility: 10mi
Dew Point: -18°   Wind: 3mph
Humidity: 12%   Direction: 300°WNW
Pressure: 30.25"   Gusts: NA
Location:  35.2008°N, 79.6471°W
Report Text: KSOP 280415Z AUTO 30003KT 10SM CLR M02/M28 A3025 RMK AO1
Loading
Personal Weather Stations






























Interactive Weather Map New forecast layout! Learn more

10-Day Weather Forecast

Advertisements
Track Severe Weather on mobile